Terminal Aerodrome Forecast
Issued by NWS Charleston, SC

Home | Current Version | Previous Version | Text Only | Print | Product List | Glossary On
Versions: 1 2 3 4 5 6 7 8 9 10 11 12 13 14 15 16 17
000
FTUS42 KCHS 260240 AAA
TAFSAV
TAF AMD
KSAV 260240Z 2603/2624 VRB03KT P6SM -RA SCT004 BKN140
      TEMPO 2609/2613 SCT004 BKN010
     FM261400 02006KT P6SM SCT025 BKN180
     FM261900 07007KT P6SM BKN040=

USA.gov is the U.S. government's official web portal to all federal, state and local government web resources and services.